Time;durP1;ratioP1;P1;durP2;ratioP2;P2;SDS_P1;SDS_P2;PMS_P1;PMS_P2;Temp;Humidity;BMP_temperature;BMP_pressure;BME280_temperature;BME280_humidity;BME280_pressure;Samples;Min_cycle;Max_cycle;Signal;HPM_P1;HPM_P2
2023/09/11 00:03:07;;;;;;;3.47;2.33;;;;;;;;;;21087977;28;20234;-77
2023/09/11 00:13:09;;;;;;;6.80;2.78;;;;;;;;;;21086488;28;20269;-78
2023/09/11 00:23:10;;;;;;;4.78;2.63;;;;;;;;;;21073130;28;20249;-77
2023/09/11 00:33:12;;;;;;;3.55;2.38;;;;;;;;;;21084528;28;20755;-77
2023/09/11 00:43:14;;;;;;;5.25;2.17;;;;;;;;;;21082779;28;20243;-77
2023/09/11 00:53:16;;;;;;;5.60;2.63;;;;;;;;;;21081902;28;20270;-77
2023/09/11 01:03:17;;;;;;;4.90;1.90;;;;;;;;;;21079735;28;20211;-77
2023/09/11 01:13:19;;;;;;;6.30;2.38;;;;;;;;;;21068076;28;20224;-77
2023/09/11 01:23:50;;;;;;;4.63;1.88;;;;;;;;;;21035887;28;20722;-77
2023/09/11 01:33:55;;;;;;;4.95;2.10;;;;;;;;;;21069223;28;20291;-77
2023/09/11 01:43:58;;;;;;;3.20;2.08;;;;;;;;;;21070882;28;20277;-76
2023/09/11 01:54:00;;;;;;;2.90;1.70;;;;;;;;;;21073244;28;20286;-77
2023/09/11 02:04:02;;;;;;;3.58;2.05;;;;;;;;;;21071751;28;20268;-77
2023/09/11 02:14:05;;;;;;;4.57;2.13;;;;;;;;;;21041913;28;20294;-76
2023/09/11 02:24:06;;;;;;;3.42;2.08;;;;;;;;;;21027274;28;20276;-76
2023/09/11 02:34:08;;;;;;;6.40;1.80;;;;;;;;;;21047790;28;20229;-77
2023/09/11 02:44:10;;;;;;;3.53;2.10;;;;;;;;;;21068592;28;20258;-77
2023/09/11 02:54:11;;;;;;;4.03;2.65;;;;;;;;;;21104390;22;20232;-76
2023/09/11 03:04:13;;;;;;;3.63;2.33;;;;;;;;;;20994401;28;20300;-77
2023/09/11 03:14:17;;;;;;;6.70;2.15;;;;;;;;;;21006939;28;20714;-76
2023/09/11 03:24:19;;;;;;;5.97;2.60;;;;;;;;;;21011078;28;20225;-76
2023/09/11 03:34:20;;;;;;;5.45;2.58;;;;;;;;;;21037404;28;20269;-74
2023/09/11 03:44:23;;;;;;;4.45;2.30;;;;;;;;;;20979423;28;20230;-75
2023/09/11 03:54:25;;;;;;;6.47;2.40;;;;;;;;;;21047113;28;20222;-74
2023/09/11 04:04:27;;;;;;;4.20;2.20;;;;;;;;;;21063955;28;20293;-73
2023/09/11 04:14:29;;;;;;;5.30;2.40;;;;;;;;;;21008750;28;20593;-73
2023/09/11 04:24:31;;;;;;;4.90;2.40;;;;;;;;;;21026552;28;20665;-74
2023/09/11 04:34:33;;;;;;;4.37;2.57;;;;;;;;;;21069268;28;20230;-75
2023/09/11 04:44:34;;;;;;;4.03;2.50;;;;;;;;;;21043187;28;20585;-74
2023/09/11 04:54:36;;;;;;;3.33;2.20;;;;;;;;;;21076164;28;20224;-75
2023/09/11 05:04:39;;;;;;;3.60;2.27;;;;;;;;;;21001909;28;20593;-74
2023/09/11 05:14:41;;;;;;;3.80;2.40;;;;;;;;;;21002029;28;20218;-73
2023/09/11 05:24:43;;;;;;;4.50;2.50;;;;;;;;;;21023087;28;20588;-73
2023/09/11 05:34:45;;;;;;;11.40;3.33;;;;;;;;;;21073333;28;20298;-74
2023/09/11 05:44:48;;;;;;;6.33;2.73;;;;;;;;;;21051978;28;20220;-74
2023/09/11 05:54:49;;;;;;;7.57;2.70;;;;;;;;;;20988624;28;20223;-74
2023/09/11 06:04:51;;;;;;;3.40;2.20;;;;;;;;;;20960565;28;20240;-74
2023/09/11 06:14:53;;;;;;;4.30;2.23;;;;;;;;;;21003269;28;20774;-74
2023/09/11 06:24:55;;;;;;;5.57;2.70;;;;;;;;;;21006964;28;20356;-73
2023/09/11 06:34:57;;;;;;;4.43;2.20;;;;;;;;;;20994127;28;20295;-74
2023/09/11 06:44:58;;;;;;;3.47;2.40;;;;;;;;;;20999173;28;20227;-74
2023/09/11 06:55:00;;;;;;;3.80;2.57;;;;;;;;;;21029030;28;20220;-74
2023/09/11 07:05:04;;;;;;;3.47;2.30;;;;;;;;;;21038114;28;20258;-74
2023/09/11 07:15:06;;;;;;;3.97;2.30;;;21.90;99.90;;;;;;21032716;28;20636;-74
2023/09/11 07:25:12;;;;;;;3.53;2.13;;;22.00;99.90;;;;;;21022214;28;20276;-73
2023/09/11 07:35:14;;;;;;;3.83;2.37;;;;;;;;;;21015361;28;20248;-75
2023/09/11 07:45:15;;;;;;;3.67;2.20;;;;;;;;;;21002618;28;20216;-73
2023/09/11 07:55:17;;;;;;;5.07;2.70;;;;;;;;;;20990260;28;20276;-73
2023/09/11 08:05:19;;;;;;;4.60;2.80;;;;;;;;;;21043549;28;20218;-74
2023/09/11 08:15:20;;;;;;;5.75;2.90;;;;;;;;;;21030837;28;20219;-73
2023/09/11 08:25:22;;;;;;;5.38;3.20;;;;;;;;;;21003577;28;20701;-73
2023/09/11 08:35:24;;;;;;;4.70;3.15;;;;;;;;;;21028272;28;20712;-74
2023/09/11 08:45:26;;;;;;;4.85;3.08;;;23.70;99.90;;;;;;21057228;28;20560;-74
2023/09/11 08:55:31;;;;;;;3.88;2.40;;;;;;;;;;21076581;22;20282;-73
2023/09/11 09:05:33;;;;;;;5.53;2.55;;;;;;;;;;20946289;28;20240;-73
2023/09/11 09:15:40;;;;;;;4.75;2.85;;;;;;;;;;20970998;28;20271;-73
2023/09/11 09:25:42;;;;;;;4.57;2.75;;;;;;;;;;20972952;28;20212;-73
2023/09/11 09:35:44;;;;;;;5.25;2.95;;;24.00;99.90;;;;;;20939653;28;20304;-73
2023/09/11 09:45:46;;;;;;;4.35;2.45;;;;;;;;;;20951125;28;20295;-73
2023/09/11 09:55:48;;;;;;;3.67;2.30;;;;;;;;;;20943064;28;20277;-72
2023/09/11 10:05:50;;;;;;;3.45;2.35;;;;;;;;;;20950631;28;20219;-73
2023/09/11 10:15:52;;;;;;;6.65;3.25;;;;;;;;;;20936091;28;20222;-73
2023/09/11 10:26:01;;;;;;;6.13;2.47;;;26.10;99.90;;;;;;20932413;28;20216;-73
2023/09/11 10:36:05;;;;;;;3.25;2.15;;;;;;;;;;20953885;28;20219;-72
2023/09/11 10:46:17;;;;;;;4.47;2.10;;;;;;;;;;20940217;28;20190;-73
2023/09/11 10:56:19;;;;;;;3.33;1.48;;;;;;;;;;20933557;28;20280;-73
2023/09/11 11:06:23;;;;;;;3.15;1.98;;;27.10;99.90;;;;;;20950775;28;20790;-73
2023/09/11 11:16:25;;;;;;;2.95;1.73;;;;;;;;;;20961251;28;20221;-72
2023/09/11 11:26:28;;;;;;;4.35;1.92;;;;;;;;;;20927052;28;20216;-72
2023/09/11 11:36:30;;;;;;;3.58;1.90;;;;;;;;;;20954380;28;20273;-73
2023/09/11 11:46:32;;;;;;;3.35;1.70;;;28.00;99.90;;;;;;20966691;28;20287;-72
2023/09/11 11:56:35;;;;;;;3.90;1.73;;;;;;;;;;20964676;28;20235;-73
2023/09/11 12:06:36;;;;;;;2.83;1.50;;;;;;;;;;20949825;28;20216;-73
2023/09/11 12:16:38;;;;;;;3.13;1.65;;;;;;;;;;20946647;28;20631;-73
2023/09/11 12:26:41;;;;;;;3.38;1.40;;;;;;;;;;20955549;28;20673;-72
2023/09/11 12:36:43;;;;;;;2.95;1.60;;;;;;;;;;20992211;28;20216;-73
2023/09/11 12:46:45;;;;;;;2.83;1.67;;;;;;;;;;20956824;28;20736;-73
2023/09/11 12:56:49;;;;;;;2.08;1.48;;;29.10;99.90;;;;;;20956727;28;20212;-73
2023/09/11 13:06:52;;;;;;;2.92;1.35;;;;;;;;;;20937463;28;20689;-73
2023/09/11 13:16:53;;;;;;;3.63;1.67;;;;;;;;;;20969339;28;20289;-72
2023/09/11 13:26:55;;;;;;;2.05;1.30;;;;;;;;;;20971407;28;20219;-73
2023/09/11 13:36:59;;;;;;;2.45;1.35;;;;;;;;;;20954428;28;20899;-73
2023/09/11 13:47:01;;;;;;;2.45;1.50;;;;;;;;;;20952110;28;20254;-73
2023/09/11 13:57:03;;;;;;;2.38;1.55;;;;;;;;;;20952935;28;20216;-73
2023/09/11 14:07:05;;;;;;;2.78;1.63;;;;;;;;;;20946613;28;20224;-74
2023/09/11 14:17:06;;;;;;;3.88;1.70;;;30.10;99.90;;;;;;20934576;28;20228;-72
2023/09/11 14:27:12;;;;;;;2.22;1.48;;;;;;;;;;20947722;28;20213;-73
2023/09/11 14:37:14;;;;;;;3.70;1.52;;;;;;;;;;20936611;28;20224;-72
2023/09/11 14:47:15;;;;;;;2.03;1.33;;;;;;;;;;20948949;28;20229;-72
2023/09/11 14:57:18;;;;;;;2.58;1.75;;;;;;;;;;20973025;22;20232;-72
2023/09/11 15:07:20;;;;;;;4.45;1.50;;;;;;;;;;21051717;28;20273;-72
2023/09/11 15:17:22;;;;;;;3.97;1.67;;;;;;;;;;21048552;28;20266;-72
2023/09/11 15:27:24;;;;;;;3.15;1.77;;;;;;;;;;21028534;28;20224;-71
2023/09/11 15:37:27;;;;;;;3.50;1.80;;;;;;;;;;21033251;28;20255;-72
2023/09/11 15:47:29;;;;;;;3.45;1.55;;;;;;;;;;21058967;28;20204;-72
2023/09/11 15:57:31;;;;;;;4.18;1.50;;;;;;;;;;21040904;28;20723;-72
2023/09/11 16:07:33;;;;;;;1.92;1.20;;;;;;;;;;21042708;28;20207;-72
2023/09/11 16:17:35;;;;;;;2.80;1.30;;;;;;;;;;21033697;28;20647;-70
2023/09/11 16:27:39;;;;;;;2.95;1.40;;;;;;;;;;21047784;28;20272;-71
2023/09/11 16:37:41;;;;;;;2.60;1.40;;;;;;;;;;21024036;28;20273;-70
2023/09/11 16:47:43;;;;;;;3.33;1.50;;;;;;;;;;21063991;28;20261;-71
2023/09/11 16:57:45;;;;;;;2.80;1.50;;;;;;;;;;21040158;28;20232;-70
2023/09/11 17:07:47;;;;;;;5.97;1.98;;;;;;;;;;21034664;28;20242;-72
2023/09/11 17:17:49;;;;;;;3.03;1.50;;;;;;;;;;21032839;28;20554;-71
2023/09/11 17:27:52;;;;;;;4.93;1.45;;;28.30;99.90;;;;;;21027393;28;20236;-73
2023/09/11 17:37:57;;;;;;;2.58;1.40;;;;;;;;;;21052709;28;20238;-73
2023/09/11 17:47:59;;;;;;;3.40;2.00;;;;;;;;;;21017921;28;20269;-71
2023/09/11 17:58:00;;;;;;;5.28;2.10;;;;;;;;;;21035107;28;20708;-71
2023/09/11 18:08:04;;;;;;;5.47;1.80;;;27.90;99.90;;;;;;21049806;28;20608;-73
2023/09/11 18:18:09;;;;;;;6.68;2.08;;;;;;;;;;21006587;28;20297;-73
2023/09/11 18:28:11;;;;;;;7.32;1.98;;;;;;;;;;21035842;28;20226;-73
2023/09/11 18:38:14;;;;;;;7.32;2.15;;;;;;;;;;21059318;28;20235;-73
2023/09/11 18:48:16;;;;;;;6.22;1.92;;;;;;;;;;21020931;28;20284;-72
2023/09/11 18:58:18;;;;;;;2.30;1.52;;;;;;;;;;21010726;28;20222;-72
2023/09/11 19:08:23;;;;;;;5.82;2.03;;;;;;;;;;21009452;28;20223;-73
2023/09/11 19:18:25;;;;;;;5.72;2.38;;;;;;;;;;21017452;28;20227;-72
2023/09/11 19:28:27;;;;;;;7.32;3.05;;;;;;;;;;21011376;28;20223;-72
2023/09/11 19:38:30;;;;;;;6.78;2.17;;;;;;;;;;21018534;28;20284;-72
2023/09/11 19:48:34;;;;;;;5.38;1.92;;;;;;;;;;21027062;28;20223;-71
2023/09/11 19:58:36;;;;;;;3.42;2.08;;;;;;;;;;21041991;28;20218;-72
2023/09/11 20:08:38;;;;;;;6.97;2.00;;;;;;;;;;21039087;28;20214;-72
2023/09/11 20:18:40;;;;;;;5.25;2.25;;;;;;;;;;21016985;28;20223;-72
2023/09/11 20:28:42;;;;;;;3.35;1.95;;;;;;;;;;21054551;28;20235;-71
2023/09/11 20:38:45;;;;;;;4.88;1.80;;;;;;;;;;21060737;28;20261;-71
2023/09/11 20:48:50;;;;;;;2.70;1.70;;;26.20;99.90;;;;;;21052636;28;20605;-72
2023/09/11 20:58:52;;;;;;;4.68;2.10;;;;;;;;;;21053090;28;20236;-71
2023/09/11 21:08:54;;;;;;;4.78;1.80;;;;;;;;;;21045815;28;20219;-71
2023/09/11 21:18:57;;;;;;;3.97;2.00;;;;;;;;;;21049768;28;20227;-73
2023/09/11 21:29:02;;;;;;;3.85;1.80;;;;;;;;;;20997559;22;20223;-70
2023/09/11 21:39:04;;;;;;;6.55;2.10;;;;;;;;;;20955578;28;20223;-70
2023/09/11 21:49:06;;;;;;;8.07;2.35;;;;;;;;;;20956874;28;20219;-70
2023/09/11 21:59:07;;;;;;;2.65;1.90;;;;;;;;;;20937106;28;20250;-70
2023/09/11 22:09:09;;;;;;;2.75;2.00;;;;;;;;;;20939972;28;20232;-71
2023/09/11 22:19:11;;;;;;;3.53;2.28;;;;;;;;;;20950794;28;20273;-70
2023/09/11 22:29:13;;;;;;;4.05;2.33;;;;;;;;;;20961427;28;20232;-70
2023/09/11 22:39:15;;;;;;;3.22;2.28;;;;;;;;;;20930257;28;20639;-70
2023/09/11 22:49:17;;;;;;;3.63;2.25;;;;;;;;;;20950538;28;20754;-70
2023/09/11 22:59:19;;;;;;;3.22;2.30;;;;;;;;;;20967424;28;20649;-70
2023/09/11 23:09:21;;;;;;;7.38;2.90;;;;;;;;;;20948746;28;20292;-70
2023/09/11 23:19:23;;;;;;;3.90;2.58;;;;;;;;;;20912671;28;20224;-71
2023/09/11 23:29:24;;;;;;;4.35;2.38;;;;;;;;;;20949504;28;20707;-71
2023/09/11 23:39:27;;;;;;;3.70;2.58;;;;;;;;;;20972892;28;20708;-71
2023/09/11 23:49:28;;;;;;;4.22;2.85;;;;;;;;;;20959473;28;20297;-72
2023/09/11 23:59:30;;;;;;;2.88;2.28;;;;;;;;;;20962904;28;20950;-69
